createdAt,value
2022-08-07T00:00:18.687Z,25.63
2022-08-07T00:00:51.104Z,25.62
2022-08-07T00:02:35.487Z,25.63
2022-08-07T00:02:36.593Z,25.62
2022-08-07T00:03:05.417Z,25.62
2022-08-07T00:03:39.984Z,25.62
2022-08-07T00:04:18.877Z,25.62
2022-08-07T00:04:56.205Z,25.62
2022-08-07T00:05:27.732Z,25.62
2022-08-07T00:05:59.204Z,25.61
2022-08-07T00:06:33.569Z,25.61
2022-08-07T00:07:05.324Z,25.60
2022-08-07T00:07:41.694Z,25.61
2022-08-07T00:08:14.477Z,25.60
2022-08-07T00:08:46.056Z,25.61
2022-08-07T00:09:21.375Z,25.60
2022-08-07T00:10:17.733Z,25.60
2022-08-07T00:10:48.084Z,25.61
2022-08-07T00:11:29.920Z,25.60
2022-08-07T00:12:04.633Z,25.60
2022-08-07T00:12:36.080Z,25.60
2022-08-07T00:13:27.491Z,25.59
2022-08-07T00:13:58.921Z,25.59
2022-08-07T00:14:31.646Z,25.59
2022-08-07T00:15:03.230Z,25.60
2022-08-07T00:15:35.919Z,25.59
2022-08-07T00:16:10.115Z,25.59
2022-08-07T00:16:48.954Z,25.57
2022-08-07T00:17:21.436Z,25.59
2022-08-07T00:17:52.864Z,25.58
2022-08-07T00:18:25.023Z,25.58
2022-08-07T00:18:56.664Z,25.58
2022-08-07T00:20:00.380Z,25.58
2022-08-07T00:20:30.018Z,25.58
2022-08-07T00:21:07.959Z,25.57
2022-08-07T00:22:02.205Z,25.57
2022-08-07T00:22:35.517Z,25.56
2022-08-07T00:23:07.968Z,25.56
2022-08-07T00:23:40.219Z,25.56
2022-08-07T00:24:11.732Z,25.57
2022-08-07T00:24:43.176Z,25.56
2022-08-07T00:25:16.339Z,25.57
2022-08-07T00:25:59.105Z,25.57
2022-08-07T00:26:58.836Z,25.55
2022-08-07T00:27:24.754Z,25.54
2022-08-07T00:28:07.173Z,25.54
2022-08-07T00:28:46.167Z,25.54
2022-08-07T00:29:31.356Z,25.54
2022-08-07T00:30:03.621Z,25.55
2022-08-07T00:30:35.061Z,25.54
2022-08-07T00:31:12.464Z,25.54
2022-08-07T00:31:49.404Z,25.54
2022-08-07T00:32:28.415Z,25.54
2022-08-07T00:33:00.136Z,25.54
2022-08-07T00:33:32.865Z,25.54
2022-08-07T00:34:04.450Z,25.53
2022-08-07T00:34:40.490Z,25.54
2022-08-07T00:35:11.932Z,25.53
2022-08-07T00:35:49.645Z,25.52
2022-08-07T00:36:21.298Z,25.53
2022-08-07T00:36:52.732Z,25.53
2022-08-07T00:37:24.830Z,25.52
2022-08-07T00:38:00.963Z,25.52
2022-08-07T00:38:33.366Z,25.53
2022-08-07T00:39:04.982Z,25.52
2022-08-07T00:39:36.503Z,25.51
2022-08-07T00:40:16.707Z,25.50
2022-08-07T00:41:14.420Z,25.51
2022-08-07T00:41:53.616Z,25.50
2022-08-07T00:42:33.045Z,25.51
2022-08-07T00:43:09.867Z,25.51
2022-08-07T00:44:00.786Z,25.51
2022-08-07T00:44:33.696Z,25.51
2022-08-07T00:45:06.983Z,25.51
2022-08-07T00:45:38.647Z,25.50
2022-08-07T00:46:10.108Z,25.50
2022-08-07T00:46:42.417Z,25.50
2022-08-07T00:47:15.938Z,25.50
2022-08-07T00:48:09.031Z,25.50
2022-08-07T00:48:42.614Z,25.49
2022-08-07T00:50:16.739Z,25.50
2022-08-07T00:50:19.951Z,25.50
2022-08-07T00:50:57.555Z,25.49
2022-08-07T00:51:56.750Z,25.50
2022-08-07T00:52:20.403Z,25.49
2022-08-07T00:52:51.830Z,25.49
2022-08-07T00:53:24.610Z,25.49
2022-08-07T00:53:56.110Z,25.49
2022-08-07T00:54:27.549Z,25.48
2022-08-07T00:55:04.749Z,25.48
2022-08-07T00:56:00.425Z,25.48
2022-08-07T00:56:33.882Z,25.48
2022-08-07T00:57:05.490Z,25.48
2022-08-07T00:57:37.653Z,25.48
2022-08-07T00:58:15.931Z,25.48
2022-08-07T00:58:49.757Z,25.48
2022-08-07T00:59:35.253Z,25.47
2022-08-07T01:00:07.408Z,25.46
2022-08-07T01:00:39.469Z,25.47
2022-08-07T01:01:25.568Z,25.47
2022-08-07T01:01:57.982Z,25.47
2022-08-07T01:02:29.763Z,25.46
2022-08-07T01:03:01.305Z,25.47
2022-08-07T01:03:55.831Z,25.46
2022-08-07T01:04:24.844Z,25.47
2022-08-07T01:04:58.301Z,25.45
2022-08-07T01:05:30.490Z,25.47
2022-08-07T01:06:08.022Z,25.46
2022-08-07T01:06:39.671Z,25.46
2022-08-07T01:07:11.100Z,25.45
2022-08-07T01:07:42.530Z,25.45
2022-08-07T01:08:13.962Z,25.45
2022-08-07T01:08:53.661Z,25.47
2022-08-07T01:10:04.012Z,25.46
2022-08-07T01:10:18.406Z,25.44
2022-08-07T01:10:56.254Z,25.45
2022-08-07T01:12:10.137Z,25.44
2022-08-07T01:12:28.812Z,25.44
2022-08-07T01:13:02.740Z,25.44
2022-08-07T01:13:35.147Z,25.43
2022-08-07T01:14:06.810Z,25.43
2022-08-07T01:14:39.364Z,25.43
2022-08-07T01:15:17.633Z,25.43
2022-08-07T01:16:05.120Z,25.44
2022-08-07T01:16:37.419Z,25.43
2022-08-07T01:17:08.849Z,25.43
2022-08-07T01:17:40.276Z,25.41
2022-08-07T01:18:17.031Z,25.43
2022-08-07T01:18:49.239Z,25.43
2022-08-07T01:19:22.124Z,25.43
2022-08-07T01:19:54.572Z,25.43
2022-08-07T01:20:30.669Z,25.42
2022-08-07T01:21:02.373Z,25.42
2022-08-07T01:21:33.804Z,25.41
2022-08-07T01:22:08.910Z,25.41
2022-08-07T01:23:00.837Z,25.42
2022-08-07T01:23:41.734Z,25.41
2022-08-07T01:24:21.181Z,25.41
2022-08-07T01:24:52.991Z,25.40
2022-08-07T01:25:53.974Z,25.41
2022-08-07T01:26:16.726Z,25.39
2022-08-07T01:26:52.431Z,25.39
2022-08-07T01:27:25.150Z,25.40
2022-08-07T01:28:03.648Z,25.40
2022-08-07T01:28:35.081Z,25.40
2022-08-07T01:29:06.517Z,25.40
2022-08-07T01:29:38.940Z,25.39
2022-08-07T01:30:10.856Z,25.39
2022-08-07T01:30:42.326Z,25.40
2022-08-07T01:31:15.522Z,25.38
2022-08-07T01:31:49.546Z,25.38
2022-08-07T01:32:22.296Z,25.37
2022-08-07T01:32:54.369Z,25.38
2022-08-07T01:33:53.734Z,25.38
2022-08-07T01:34:17.242Z,25.37
2022-08-07T01:34:49.233Z,25.36
2022-08-07T01:35:20.789Z,25.36
2022-08-07T01:36:05.912Z,25.37
2022-08-07T01:36:40.614Z,25.36
2022-08-07T01:37:12.261Z,25.37
2022-08-07T01:37:44.521Z,25.37
2022-08-07T01:38:25.214Z,25.38
2022-08-07T01:38:57.213Z,25.37
2022-08-07T01:39:40.417Z,25.36
2022-08-07T01:40:17.605Z,25.36
2022-08-07T01:40:49.276Z,25.35
2022-08-07T01:41:26.075Z,25.36
2022-08-07T01:42:07.853Z,25.36
2022-08-07T01:42:58.464Z,25.34
2022-08-07T01:43:38.017Z,25.35
2022-08-07T01:44:10.093Z,25.36
2022-08-07T01:44:41.967Z,25.35
2022-08-07T01:45:18.137Z,25.36
2022-08-07T01:45:50.128Z,25.35
2022-08-07T01:46:26.106Z,25.35
2022-08-07T01:47:01.066Z,25.34
2022-08-07T01:48:21.593Z,25.34
2022-08-07T01:48:37.865Z,25.33
2022-08-07T01:49:12.636Z,25.34
2022-08-07T01:49:46.917Z,25.33
2022-08-07T01:50:29.015Z,25.33
2022-08-07T01:51:08.192Z,25.34
2022-08-07T01:52:04.071Z,25.33
2022-08-07T01:52:36.141Z,25.32
2022-08-07T01:53:08.861Z,25.33
2022-08-07T01:54:09.086Z,25.32
2022-08-07T01:54:32.911Z,25.32
2022-08-07T01:55:08.581Z,25.32
2022-08-07T01:55:54.010Z,25.30
2022-08-07T01:56:25.515Z,25.30
2022-08-07T01:57:00.515Z,25.31
2022-08-07T01:58:06.471Z,25.31
2022-08-07T01:58:28.875Z,25.30
2022-08-07T01:59:01.360Z,25.31
2022-08-07T01:59:32.808Z,25.30
2022-08-07T02:00:04.239Z,25.30
2022-08-07T02:00:48.898Z,25.29
2022-08-07T02:01:25.512Z,25.30
2022-08-07T02:02:12.387Z,25.29
2022-08-07T02:03:12.172Z,25.29
2022-08-07T02:03:51.233Z,25.29
2022-08-07T02:04:22.890Z,25.28
2022-08-07T02:04:58.152Z,25.29
2022-08-07T02:05:42.972Z,25.29
2022-08-07T02:06:30.672Z,25.28
2022-08-07T02:07:03.794Z,25.27
2022-08-07T02:07:36.135Z,25.28
2022-08-07T02:08:23.798Z,25.29
2022-08-07T02:08:56.053Z,25.29
2022-08-07T02:09:51.994Z,25.29
2022-08-07T02:10:19.451Z,25.27
2022-08-07T02:10:55.114Z,25.28
2022-08-07T02:11:30.874Z,25.27
2022-08-07T02:12:18.441Z,25.28
2022-08-07T02:12:50.316Z,25.29
2022-08-07T02:13:21.828Z,25.28
2022-08-07T02:14:14.512Z,25.26
2022-08-07T02:15:06.087Z,25.27
2022-08-07T02:15:38.505Z,25.27
2022-08-07T02:16:11.789Z,25.27
2022-08-07T02:16:43.541Z,25.26
2022-08-07T02:17:24.686Z,25.26
2022-08-07T02:17:56.628Z,25.27
2022-08-07T02:18:28.063Z,25.26
2022-08-07T02:19:01.758Z,25.26
2022-08-07T02:20:07.220Z,25.26
2022-08-07T02:20:28.288Z,25.25
2022-08-07T02:20:59.716Z,25.25
2022-08-07T02:21:56.773Z,25.25
2022-08-07T02:22:29.065Z,25.24
2022-08-07T02:23:01.782Z,25.25
2022-08-07T02:23:35.858Z,25.25
2022-08-07T02:24:07.540Z,25.24
2022-08-07T02:24:40.641Z,25.24
2022-08-07T02:25:18.098Z,25.25
2022-08-07T02:26:31.694Z,25.24
2022-08-07T02:26:41.244Z,25.24
2022-08-07T02:27:14.440Z,25.24
2022-08-07T02:27:51.223Z,25.24
2022-08-07T02:28:27.155Z,25.25
2022-08-07T02:28:58.778Z,25.24
2022-08-07T02:29:31.516Z,25.23
2022-08-07T02:30:03.918Z,25.23
2022-08-07T02:30:38.711Z,25.24
2022-08-07T02:31:28.067Z,25.25
2022-08-07T02:32:00.769Z,25.23
2022-08-07T02:32:32.216Z,25.23
2022-08-07T02:33:09.560Z,25.24
2022-08-07T02:34:02.748Z,25.22
2022-08-07T02:34:33.545Z,25.21
2022-08-07T02:35:06.159Z,25.21
2022-08-07T02:36:30.568Z,25.22
2022-08-07T02:36:32.791Z,25.21
2022-08-07T02:37:08.279Z,25.22
2022-08-07T02:37:43.995Z,25.21
2022-08-07T02:38:15.807Z,25.21
2022-08-07T02:38:50.901Z,25.20
2022-08-07T02:39:43.567Z,25.20
2022-08-07T02:40:30.666Z,25.21
2022-08-07T02:41:04.746Z,25.21
2022-08-07T02:41:37.399Z,25.21
2022-08-07T02:42:10.386Z,25.21
2022-08-07T02:42:46.485Z,25.21
2022-08-07T02:43:19.468Z,25.20
2022-08-07T02:43:52.273Z,25.20
2022-08-07T02:44:27.563Z,25.20
2022-08-07T02:45:07.425Z,25.18
2022-08-07T02:46:01.996Z,25.20
2022-08-07T02:46:34.010Z,25.20
2022-08-07T02:47:08.354Z,25.20
2022-08-07T02:47:51.519Z,25.20
2022-08-07T02:48:23.578Z,25.20
2022-08-07T02:48:55.397Z,25.21
2022-08-07T02:49:29.169Z,25.20
2022-08-07T02:50:18.409Z,25.21
2022-08-07T02:50:49.996Z,25.20
2022-08-07T02:51:41.854Z,25.20
2022-08-07T02:52:13.512Z,25.19
2022-08-07T02:52:48.636Z,25.19
2022-08-07T02:53:20.446Z,25.20
2022-08-07T02:53:51.872Z,25.19
2022-08-07T02:54:25.256Z,25.19
2022-08-07T02:54:56.805Z,25.21
2022-08-07T02:56:03.537Z,25.20
2022-08-07T02:56:21.681Z,25.18
2022-08-07T02:56:53.367Z,25.19
2022-08-07T02:57:24.881Z,25.19
2022-08-07T02:58:02.477Z,25.19
2022-08-07T02:58:35.320Z,25.20
2022-08-07T02:59:07.446Z,25.18
2022-08-07T02:59:38.873Z,25.19
2022-08-07T03:00:12.047Z,25.19
2022-08-07T03:00:47.119Z,25.19
2022-08-07T03:01:36.346Z,25.19
2022-08-07T03:02:10.380Z,25.18
2022-08-07T03:02:55.093Z,25.18
2022-08-07T03:03:29.526Z,25.17
2022-08-07T03:04:18.460Z,25.18
2022-08-07T03:04:50.408Z,25.16
2022-08-07T03:05:23.240Z,25.18
2022-08-07T03:05:56.089Z,25.16
2022-08-07T03:06:33.017Z,25.16
2022-08-07T03:07:10.509Z,25.16
2022-08-07T03:08:04.635Z,25.16
2022-08-07T03:08:33.745Z,25.16
2022-08-07T03:09:06.146Z,25.16
2022-08-07T03:09:41.821Z,25.16
2022-08-07T03:10:16.200Z,25.16
2022-08-07T03:10:49.121Z,25.16
2022-08-07T03:11:20.554Z,25.15
2022-08-07T03:11:57.871Z,25.15
2022-08-07T03:12:34.106Z,25.15
2022-08-07T03:13:06.322Z,25.15
2022-08-07T03:13:49.879Z,25.15
2022-08-07T03:14:22.465Z,25.15
2022-08-07T03:14:54.141Z,25.14
2022-08-07T03:15:30.323Z,25.15
2022-08-07T03:16:17.051Z,25.14
2022-08-07T03:16:49.626Z,25.16
2022-08-07T03:17:22.260Z,25.14
2022-08-07T03:17:54.629Z,25.14
2022-08-07T03:18:34.257Z,25.14
2022-08-07T03:19:06.671Z,25.14
2022-08-07T03:19:39.719Z,25.12
2022-08-07T03:20:12.485Z,25.12
2022-08-07T03:20:44.224Z,25.13
2022-08-07T03:21:18.857Z,25.14
2022-08-07T03:21:51.105Z,25.13
2022-08-07T03:22:22.681Z,25.14
2022-08-07T03:22:55.629Z,25.14
2022-08-07T03:23:33.552Z,25.14
2022-08-07T03:24:19.342Z,25.14
2022-08-07T03:24:57.195Z,25.13
2022-08-07T03:25:40.151Z,25.13
2022-08-07T03:26:21.083Z,25.12
2022-08-07T03:26:58.271Z,25.11
2022-08-07T03:28:09.042Z,25.12
2022-08-07T03:28:37.493Z,25.11
2022-08-07T03:29:11.215Z,25.11
2022-08-07T03:29:49.579Z,25.11
2022-08-07T03:30:24.438Z,25.12
2022-08-07T03:30:55.935Z,25.10
2022-08-07T03:31:42.896Z,25.10
2022-08-07T03:32:15.254Z,25.10
2022-08-07T03:32:58.901Z,25.10
2022-08-07T03:33:40.114Z,25.10
2022-08-07T03:34:18.770Z,25.10
2022-08-07T03:35:00.956Z,25.10
2022-08-07T03:35:50.506Z,25.09
2022-08-07T03:36:22.223Z,25.09
2022-08-07T03:36:58.052Z,25.09
2022-08-07T03:37:32.826Z,25.10
2022-08-07T03:38:08.729Z,25.11
2022-08-07T03:38:44.996Z,25.10
2022-08-07T03:39:59.655Z,25.10
2022-08-07T03:40:15.805Z,25.08
2022-08-07T03:40:48.246Z,25.09
2022-08-07T03:41:42.261Z,25.10
2022-08-07T03:42:19.007Z,25.08
2022-08-07T03:42:51.508Z,25.09
2022-08-07T03:43:22.954Z,25.09
2022-08-07T03:43:58.138Z,25.08
2022-08-07T03:44:32.021Z,25.08
2022-08-07T03:45:06.012Z,25.08
2022-08-07T03:45:43.544Z,25.09
2022-08-07T03:46:18.921Z,25.08
2022-08-07T03:47:10.771Z,25.08
2022-08-07T03:47:48.038Z,25.06
2022-08-07T03:48:22.962Z,25.06
2022-08-07T03:49:02.855Z,25.08
2022-08-07T03:49:34.864Z,25.07
2022-08-07T03:50:07.074Z,25.08
2022-08-07T03:50:43.211Z,25.07
2022-08-07T03:51:30.679Z,25.07
2022-08-07T03:52:02.513Z,25.06
2022-08-07T03:52:33.947Z,25.05
2022-08-07T03:53:05.380Z,25.06
2022-08-07T03:54:05.551Z,25.05
2022-08-07T03:54:35.159Z,25.04
2022-08-07T03:55:13.618Z,25.05
2022-08-07T03:55:57.526Z,25.05
2022-08-07T03:56:35.638Z,25.05
2022-08-07T03:57:07.493Z,25.05
2022-08-07T03:58:32.891Z,25.05
2022-08-07T03:59:06.689Z,25.04
2022-08-07T03:59:21.893Z,25.04
2022-08-07T04:00:01.637Z,25.04
2022-08-07T04:00:36.532Z,25.04
2022-08-07T04:01:11.175Z,25.04
2022-08-07T04:01:43.278Z,25.04
2022-08-07T04:02:17.031Z,25.04
2022-08-07T04:02:49.455Z,25.04
2022-08-07T04:03:21.082Z,25.04
2022-08-07T04:03:55.106Z,25.03
2022-08-07T04:04:27.034Z,25.04
2022-08-07T04:04:58.473Z,25.03
2022-08-07T04:05:39.572Z,25.03
2022-08-07T04:06:37.442Z,25.04
2022-08-07T04:07:03.597Z,25.03
2022-08-07T04:07:48.543Z,25.02
2022-08-07T04:08:21.197Z,25.02
2022-08-07T04:08:52.916Z,25.02
2022-08-07T04:09:24.397Z,25.02
2022-08-07T04:09:55.840Z,25.03
2022-08-07T04:10:27.267Z,25.02
2022-08-07T04:12:24.393Z,25.02
2022-08-07T04:12:25.607Z,25.02
2022-08-07T04:12:43.899Z,25.01
2022-08-07T04:13:15.705Z,25.02
2022-08-07T04:14:09.180Z,25.03
2022-08-07T04:14:45.945Z,25.01
2022-08-07T04:15:19.314Z,25.02
2022-08-07T04:15:52.701Z,25.02
2022-08-07T04:16:31.422Z,25.01
2022-08-07T04:17:03.954Z,25.02
2022-08-07T04:18:31.917Z,25.01
2022-08-07T04:18:56.412Z,25.01
2022-08-07T04:19:18.431Z,25.01
2022-08-07T04:19:54.136Z,25.01
2022-08-07T04:20:26.399Z,25.02
2022-08-07T04:20:57.955Z,25.01
2022-08-07T04:21:31.817Z,25.02
2022-08-07T04:22:08.769Z,25.01
2022-08-07T04:22:53.453Z,25.01
2022-08-07T04:23:25.313Z,25.00
2022-08-07T04:24:30.715Z,24.99
2022-08-07T04:25:08.900Z,24.98
2022-08-07T04:25:44.021Z,24.98
2022-08-07T04:26:16.766Z,24.98
2022-08-07T04:26:48.438Z,24.97
2022-08-07T04:27:25.639Z,24.98
2022-08-07T04:27:59.478Z,24.98
2022-08-07T04:28:32.233Z,24.99
2022-08-07T04:29:03.683Z,24.98
2022-08-07T04:29:48.956Z,24.97
2022-08-07T04:30:39.347Z,24.97
2022-08-07T04:31:20.121Z,24.97
2022-08-07T04:32:03.353Z,24.97
2022-08-07T04:32:44.951Z,24.97
2022-08-07T04:33:19.521Z,24.96
2022-08-07T04:33:55.100Z,24.95
2022-08-07T04:34:33.286Z,24.97
2022-08-07T04:35:05.718Z,24.96
2022-08-07T04:35:37.647Z,24.96
2022-08-07T04:36:09.131Z,24.96
2022-08-07T04:36:40.613Z,24.96
2022-08-07T04:37:20.243Z,24.96
2022-08-07T04:38:01.045Z,24.97
2022-08-07T04:38:36.053Z,24.96
2022-08-07T04:39:07.531Z,24.96
2022-08-07T04:39:47.875Z,24.96
2022-08-07T04:40:21.244Z,24.96
2022-08-07T04:40:56.726Z,24.96
2022-08-07T04:41:28.396Z,24.96
2022-08-07T04:42:00.026Z,24.95
2022-08-07T04:42:31.477Z,24.96
2022-08-07T04:43:03.503Z,24.95
2022-08-07T04:44:12.905Z,24.96
2022-08-07T04:44:26.584Z,24.95
2022-08-07T04:45:02.941Z,24.96
2022-08-07T04:45:57.591Z,24.95
2022-08-07T04:46:34.791Z,24.95
2022-08-07T04:47:08.818Z,24.96
2022-08-07T04:48:02.040Z,24.95
2022-08-07T04:48:31.962Z,24.95
2022-08-07T04:49:17.564Z,24.95
2022-08-07T04:49:57.877Z,24.93
2022-08-07T04:50:34.872Z,24.95
2022-08-07T04:51:09.332Z,24.94
2022-08-07T04:51:40.888Z,24.95
2022-08-07T04:52:14.130Z,24.95
2022-08-07T04:52:51.147Z,24.95
2022-08-07T04:53:40.022Z,24.94
2022-08-07T04:54:15.543Z,24.93
2022-08-07T04:54:50.727Z,24.94
2022-08-07T04:58:11.901Z,24.93
2022-08-07T04:58:13.687Z,24.93
2022-08-07T04:58:16.378Z,24.94
2022-08-07T04:58:24.123Z,24.94
2022-08-07T04:59:17.251Z,24.92
2022-08-07T05:00:11.889Z,24.93
2022-08-07T05:00:32.417Z,24.92
2022-08-07T05:01:04.131Z,24.93
2022-08-07T05:01:44.915Z,24.92
2022-08-07T05:02:20.616Z,24.92
2022-08-07T05:02:53.511Z,24.92
2022-08-07T05:04:06.910Z,24.92
2022-08-07T05:04:17.767Z,24.91
2022-08-07T05:04:50.270Z,24.91
2022-08-07T05:05:53.154Z,24.91
2022-08-07T05:06:19.348Z,24.90
2022-08-07T05:06:53.346Z,24.90
2022-08-07T05:07:30.552Z,24.91
2022-08-07T05:08:08.426Z,24.90
2022-08-07T05:09:00.024Z,24.91
2022-08-07T05:09:45.709Z,24.90
2022-08-07T05:10:18.241Z,24.89
2022-08-07T05:10:50.325Z,24.90
2022-08-07T05:11:57.976Z,24.90
2022-08-07T05:12:26.802Z,24.90
2022-08-07T05:13:09.912Z,24.89
2022-08-07T05:14:52.322Z,24.89
2022-08-07T05:14:54.507Z,24.89
2022-08-07T05:15:28.708Z,24.89
2022-08-07T05:16:00.463Z,24.89
2022-08-07T05:16:36.257Z,24.89
2022-08-07T05:17:50.218Z,24.89
2022-08-07T05:18:09.371Z,24.87
2022-08-07T05:18:41.889Z,24.87
2022-08-07T05:19:13.821Z,24.87
2022-08-07T05:19:46.232Z,24.88
2022-08-07T05:20:17.716Z,24.88
2022-08-07T05:20:49.396Z,24.87
2022-08-07T05:21:59.275Z,24.87
2022-08-07T05:22:13.179Z,24.88
2022-08-07T05:22:58.290Z,24.87
2022-08-07T05:23:29.984Z,24.87
2022-08-07T05:24:01.719Z,24.86
2022-08-07T05:24:40.454Z,24.86
2022-08-07T05:25:25.557Z,24.87
2022-08-07T05:26:15.444Z,24.87
2022-08-07T05:26:50.423Z,24.87
2022-08-07T05:28:03.182Z,24.86
2022-08-07T05:28:20.728Z,24.86
2022-08-07T05:28:54.276Z,24.86
2022-08-07T05:29:27.166Z,24.86
2022-08-07T05:30:10.579Z,24.85
2022-08-07T05:30:42.088Z,24.86
2022-08-07T05:31:14.578Z,24.86
2022-08-07T05:31:52.852Z,24.86
2022-08-07T05:32:24.550Z,24.85
2022-08-07T05:32:55.978Z,24.86
2022-08-07T05:33:29.149Z,24.85
2022-08-07T05:34:01.398Z,24.85
2022-08-07T05:34:37.169Z,24.86
2022-08-07T05:35:08.669Z,24.86
2022-08-07T05:35:42.203Z,24.86
2022-08-07T05:36:22.321Z,24.85
2022-08-07T05:36:54.265Z,24.85
2022-08-07T05:37:25.928Z,24.85
2022-08-07T05:38:08.854Z,24.86
2022-08-07T05:39:00.057Z,24.86
2022-08-07T05:40:13.864Z,24.85
2022-08-07T05:40:24.120Z,24.85
2022-08-07T05:41:00.239Z,24.84
2022-08-07T05:42:00.418Z,24.86
2022-08-07T05:42:33.234Z,24.83
2022-08-07T05:43:06.212Z,24.85
2022-08-07T05:43:49.668Z,24.83
2022-08-07T05:44:33.600Z,24.85
2022-08-07T05:45:25.783Z,24.83
2022-08-07T05:45:57.007Z,24.84
2022-08-07T05:46:29.411Z,24.82
2022-08-07T05:47:01.263Z,24.83
2022-08-07T05:47:38.320Z,24.82
2022-08-07T05:48:26.525Z,24.83
2022-08-07T05:48:59.371Z,24.85
2022-08-07T05:49:41.040Z,24.82
2022-08-07T05:50:13.337Z,24.82
2022-08-07T05:50:44.772Z,24.82
2022-08-07T05:51:16.221Z,24.82
2022-08-07T05:51:47.660Z,24.83
2022-08-07T05:52:20.064Z,24.81
2022-08-07T05:52:51.946Z,24.81
2022-08-07T05:54:12.001Z,24.82
2022-08-07T05:54:30.540Z,24.80
2022-08-07T05:55:10.257Z,24.81
2022-08-07T05:56:02.129Z,24.80
2022-08-07T05:56:33.864Z,24.80
2022-08-07T05:57:06.655Z,24.80
2022-08-07T05:57:42.358Z,24.80
2022-08-07T05:58:14.041Z,24.78
2022-08-07T05:58:52.442Z,24.79
2022-08-07T05:59:24.477Z,24.78
2022-08-07T05:59:58.209Z,24.79
2022-08-07T06:00:29.790Z,24.79
2022-08-07T06:01:05.114Z,24.78
2022-08-07T06:01:37.495Z,24.78
2022-08-07T06:02:09.384Z,24.78
2022-08-07T06:02:41.011Z,24.79
2022-08-07T06:03:13.196Z,24.79
2022-08-07T06:03:57.042Z,24.79
2022-08-07T06:04:30.503Z,24.78
2022-08-07T06:05:03.601Z,24.79
2022-08-07T06:05:35.265Z,24.78
2022-08-07T06:06:06.692Z,24.77
2022-08-07T06:06:46.198Z,24.78
2022-08-07T06:07:22.976Z,24.77
2022-08-07T06:08:29.529Z,24.77
2022-08-07T06:09:04.767Z,24.77
2022-08-07T06:10:04.209Z,24.77
2022-08-07T06:10:28.071Z,24.77
2022-08-07T06:10:59.554Z,24.78
2022-08-07T06:11:35.277Z,24.77
2022-08-07T06:12:06.710Z,24.77
2022-08-07T06:12:38.724Z,24.77
2022-08-07T06:13:13.311Z,24.77
2022-08-07T06:14:11.547Z,24.77
2022-08-07T06:14:38.332Z,24.76
2022-08-07T06:15:09.824Z,24.77
2022-08-07T06:15:49.802Z,24.77
2022-08-07T06:16:21.425Z,24.76
2022-08-07T06:16:55.695Z,24.76
2022-08-07T06:17:32.003Z,24.77
2022-08-07T06:18:09.057Z,24.77
2022-08-07T06:18:51.766Z,24.76
2022-08-07T06:19:52.026Z,24.76
2022-08-07T06:20:25.453Z,24.76
2022-08-07T06:22:14.498Z,24.76
2022-08-07T06:22:16.360Z,24.77
2022-08-07T06:23:02.237Z,24.76
2022-08-07T06:24:36.992Z,24.76
2022-08-07T06:24:38.479Z,24.76
2022-08-07T06:25:17.580Z,24.75
2022-08-07T06:25:54.379Z,24.75
2022-08-07T06:26:28.308Z,24.75
2022-08-07T06:26:59.734Z,24.74
2022-08-07T06:27:44.427Z,24.74
2022-08-07T06:28:27.787Z,24.75
2022-08-07T06:28:59.991Z,24.74
2022-08-07T06:29:33.005Z,24.73
2022-08-07T06:30:04.797Z,24.74
2022-08-07T06:30:37.419Z,24.74
2022-08-07T06:31:12.952Z,24.74
2022-08-07T06:31:50.001Z,24.72
2022-08-07T06:32:22.079Z,24.72
2022-08-07T06:33:00.998Z,24.74
2022-08-07T06:33:33.050Z,24.73
2022-08-07T06:34:04.725Z,24.73
2022-08-07T06:34:36.166Z,24.74
2022-08-07T06:35:17.998Z,24.74
2022-08-07T06:36:06.630Z,24.73
2022-08-07T06:36:41.019Z,24.73
2022-08-07T06:37:12.444Z,24.72
2022-08-07T06:37:48.788Z,24.73
2022-08-07T06:38:24.452Z,24.72
2022-08-07T06:40:13.249Z,24.72
2022-08-07T06:40:18.023Z,24.71
2022-08-07T06:40:45.927Z,24.71
2022-08-07T06:41:17.647Z,24.71
2022-08-07T06:42:09.151Z,24.71
2022-08-07T06:42:41.205Z,24.72
2022-08-07T06:43:21.406Z,24.71
2022-08-07T06:43:59.504Z,24.70
2022-08-07T06:44:39.752Z,24.71
2022-08-07T06:45:11.484Z,24.71
2022-08-07T06:45:44.286Z,24.71
2022-08-07T06:46:20.388Z,24.71
2022-08-07T06:47:10.506Z,24.71
2022-08-07T06:47:57.486Z,24.71
2022-08-07T06:48:30.281Z,24.71
2022-08-07T06:49:04.435Z,24.71
2022-08-07T06:49:36.157Z,24.71
2022-08-07T06:50:23.987Z,24.71
2022-08-07T06:50:56.009Z,24.71
2022-08-07T06:51:33.527Z,24.71
2022-08-07T06:52:07.615Z,24.72
2022-08-07T06:52:41.813Z,24.71
2022-08-07T06:53:49.353Z,24.71
2022-08-07T06:55:29.104Z,24.72
2022-08-07T06:55:32.524Z,24.72
2022-08-07T06:56:01.233Z,24.72
2022-08-07T06:56:33.746Z,24.72
2022-08-07T06:57:05.237Z,24.72
2022-08-07T06:57:39.851Z,24.72
2022-08-07T06:58:21.320Z,24.70
2022-08-07T07:00:11.708Z,24.70
2022-08-07T07:00:12.603Z,24.71
2022-08-07T07:00:36.105Z,24.69
2022-08-07T07:01:07.629Z,24.69
2022-08-07T07:01:43.909Z,24.70
2022-08-07T07:02:49.081Z,24.70
2022-08-07T07:03:13.966Z,24.69
2022-08-07T07:03:57.144Z,24.71
2022-08-07T07:04:34.447Z,24.69
2022-08-07T07:05:05.938Z,24.70
2022-08-07T07:06:03.765Z,24.69
2022-08-07T07:06:29.053Z,24.68
2022-08-07T07:07:01.814Z,24.68
2022-08-07T07:07:59.691Z,24.69
2022-08-07T07:08:26.503Z,24.68
2022-08-07T07:08:58.305Z,24.68
2022-08-07T07:09:31.329Z,24.68
2022-08-07T07:10:03.035Z,24.68
2022-08-07T07:10:34.462Z,24.69
2022-08-07T07:11:13.949Z,24.68
2022-08-07T07:12:10.666Z,24.68
2022-08-07T07:12:50.429Z,24.67
2022-08-07T07:13:56.612Z,24.68
2022-08-07T07:14:16.445Z,24.68
2022-08-07T07:14:49.177Z,24.68
2022-08-07T07:15:24.182Z,24.68
2022-08-07T07:16:04.165Z,24.68
2022-08-07T07:16:45.022Z,24.68
2022-08-07T07:17:21.557Z,24.69
2022-08-07T07:18:00.338Z,24.68
2022-08-07T07:18:47.779Z,24.68
2022-08-07T07:19:55.776Z,24.68
2022-08-07T07:20:11.441Z,24.69
2022-08-07T07:20:43.440Z,24.70
2022-08-07T07:21:19.842Z,24.69
2022-08-07T07:22:04.865Z,24.69
2022-08-07T07:24:05.554Z,24.69
2022-08-07T07:24:05.599Z,24.69
2022-08-07T07:24:25.688Z,24.70
2022-08-07T07:25:14.478Z,24.69
2022-08-07T07:26:34.472Z,24.70
2022-08-07T07:26:40.601Z,24.70
2022-08-07T07:27:12.106Z,24.69
2022-08-07T07:27:55.675Z,24.69
2022-08-07T07:28:48.329Z,24.71
2022-08-07T07:29:57.196Z,24.71
2022-08-07T07:30:26.542Z,24.71
2022-08-07T07:31:07.884Z,24.71
2022-08-07T07:31:44.519Z,24.71
2022-08-07T07:32:18.000Z,24.72
2022-08-07T07:32:49.428Z,24.72
2022-08-07T07:33:21.677Z,24.71
2022-08-07T07:33:57.085Z,24.74
2022-08-07T07:34:30.737Z,24.73
2022-08-07T07:35:04.052Z,24.72
2022-08-07T07:35:54.151Z,24.73
2022-08-07T07:36:32.165Z,24.74
2022-08-07T07:37:14.585Z,24.74
2022-08-07T07:38:02.735Z,24.72
2022-08-07T07:38:37.264Z,24.74
2022-08-07T07:39:11.021Z,24.74
2022-08-07T07:39:52.069Z,24.74
2022-08-07T07:40:26.601Z,24.74
2022-08-07T07:41:01.925Z,24.75
2022-08-07T07:42:01.885Z,24.76
2022-08-07T07:42:25.828Z,24.74
2022-08-07T07:43:15.267Z,24.75
2022-08-07T07:44:16.788Z,24.75
2022-08-07T07:44:41.702Z,24.75
2022-08-07T07:45:13.132Z,24.75
2022-08-07T07:46:36.834Z,24.75
2022-08-07T07:46:54.502Z,24.76
2022-08-07T07:47:28.925Z,24.75
2022-08-07T07:48:00.620Z,24.76
2022-08-07T07:48:35.798Z,24.76
2022-08-07T07:50:15.894Z,24.76
2022-08-07T07:50:32.962Z,24.76
2022-08-07T07:50:50.631Z,24.75
2022-08-07T07:51:22.067Z,24.76
2022-08-07T07:51:58.152Z,24.77
2022-08-07T07:52:31.305Z,24.76
2022-08-07T07:53:03.176Z,24.76
2022-08-07T07:53:35.197Z,24.78
2022-08-07T07:54:06.643Z,24.77
2022-08-07T07:54:44.310Z,24.77
2022-08-07T07:55:22.964Z,24.78
2022-08-07T07:56:00.434Z,24.78
2022-08-07T07:56:32.167Z,24.78
2022-08-07T07:57:05.004Z,24.78
2022-08-07T07:57:51.574Z,24.78
2022-08-07T07:58:25.099Z,24.79
2022-08-07T07:58:59.384Z,24.79
2022-08-07T07:59:52.412Z,24.78
2022-08-07T08:00:29.455Z,24.78
2022-08-07T08:01:01.482Z,24.78
2022-08-07T08:02:02.128Z,24.78
2022-08-07T08:02:36.096Z,24.77
2022-08-07T08:03:08.246Z,24.77
2022-08-07T08:04:10.435Z,24.78
2022-08-07T08:04:31.641Z,24.77
2022-08-07T08:05:03.406Z,24.77
2022-08-07T08:05:54.527Z,24.77
2022-08-07T08:06:26.257Z,24.78
2022-08-07T08:07:00.751Z,24.77
2022-08-07T08:07:36.002Z,24.78
2022-08-07T08:08:34.624Z,24.78
2022-08-07T08:09:05.507Z,24.77